sensor_id;sensor_type;location;lat;lon;timestamp;pressure;altitude;pressure_sealevel;temperature;humidity
68197;BME280;55019;49.382;11.358;2023-10-09T00:01:27;97242.00;;;12.93;100.00
68197;BME280;55019;49.382;11.358;2023-10-09T00:03:54;97237.78;;;12.92;100.00
68197;BME280;55019;49.382;11.358;2023-10-09T00:06:22;97230.13;;;12.90;100.00
68197;BME280;55019;49.382;11.358;2023-10-09T00:09:03;97237.09;;;12.90;100.00
68197;BME280;55019;49.382;11.358;2023-10-09T00:11:42;97226.88;;;12.88;100.00
68197;BME280;55019;49.382;11.358;2023-10-09T00:14:11;97232.38;;;12.85;100.00
68197;BME280;55019;49.382;11.358;2023-10-09T00:16:37;97232.06;;;12.80;100.00
68197;BME280;55019;49.382;11.358;2023-10-09T00:19:13;97232.56;;;12.84;100.00
68197;BME280;55019;49.382;11.358;2023-10-09T00:21:40;97234.50;;;12.82;100.00
68197;BME280;55019;49.382;11.358;2023-10-09T00:24:07;97226.06;;;12.80;100.00
68197;BME280;55019;49.382;11.358;2023-10-09T00:26:48;97225.25;;;12.79;100.00
68197;BME280;55019;49.382;11.358;2023-10-09T00:29:15;97221.53;;;12.82;100.00
68197;BME280;55019;49.382;11.358;2023-10-09T00:31:53;97227.53;;;12.82;100.00
68197;BME280;55019;49.382;11.358;2023-10-09T00:34:39;97218.63;;;12.85;100.00
68197;BME280;55019;49.382;11.358;2023-10-09T00:37:06;97215.69;;;12.80;100.00
68197;BME280;55019;49.382;11.358;2023-10-09T00:39:36;97219.28;;;12.87;100.00
68197;BME280;55019;49.382;11.358;2023-10-09T00:42:02;97215.66;;;12.48;100.00
68197;BME280;55019;49.382;11.358;2023-10-09T00:44:29;97195.75;;;12.64;100.00
68197;BME280;55019;49.382;11.358;2023-10-09T00:47:12;97195.69;;;12.40;100.00
68197;BME280;55019;49.382;11.358;2023-10-09T00:49:58;97195.75;;;12.72;100.00
68197;BME280;55019;49.382;11.358;2023-10-09T00:52:31;97185.34;;;12.48;100.00
68197;BME280;55019;49.382;11.358;2023-10-09T00:55:03;97184.72;;;12.70;100.00
68197;BME280;55019;49.382;11.358;2023-10-09T00:57:48;97173.38;;;12.79;100.00
68197;BME280;55019;49.382;11.358;2023-10-09T01:00:16;97166.25;;;12.81;100.00
68197;BME280;55019;49.382;11.358;2023-10-09T02:13:14;97110.47;;;13.17;100.00
68197;BME280;55019;49.382;11.358;2023-10-09T02:15:43;97112.91;;;13.18;100.00
68197;BME280;55019;49.382;11.358;2023-10-09T02:23:32;97104.00;;;13.13;100.00
68197;BME280;55019;49.382;11.358;2023-10-09T02:26:18;97096.88;;;13.07;100.00
68197;BME280;55019;49.382;11.358;2023-10-09T02:28:55;97094.41;;;13.13;100.00
68197;BME280;55019;49.382;11.358;2023-10-09T02:31:26;97084.22;;;13.12;100.00
68197;BME280;55019;49.382;11.358;2023-10-09T02:33:53;97090.06;;;13.14;100.00
68197;BME280;55019;49.382;11.358;2023-10-09T02:36:22;97088.25;;;13.14;100.00
68197;BME280;55019;49.382;11.358;2023-10-09T02:38:47;97085.22;;;13.11;100.00
68197;BME280;55019;49.382;11.358;2023-10-09T02:41:15;97083.25;;;13.13;100.00
68197;BME280;55019;49.382;11.358;2023-10-09T02:43:41;97071.56;;;13.17;100.00
68197;BME280;55019;49.382;11.358;2023-10-09T02:46:17;97076.56;;;13.18;100.00
68197;BME280;55019;49.382;11.358;2023-10-09T02:48:47;97078.84;;;13.13;100.00
68197;BME280;55019;49.382;11.358;2023-10-09T02:51:18;97074.81;;;13.11;100.00
68197;BME280;55019;49.382;11.358;2023-10-09T02:54:01;97075.47;;;13.13;100.00
68197;BME280;55019;49.382;11.358;2023-10-09T02:56:47;97069.31;;;13.14;100.00
68197;BME280;55019;49.382;11.358;2023-10-09T02:59:20;97075.13;;;13.16;100.00
68197;BME280;55019;49.382;11.358;2023-10-09T03:01:48;97076.56;;;13.18;100.00
68197;BME280;55019;49.382;11.358;2023-10-09T03:04:14;97069.63;;;13.11;100.00
68197;BME280;55019;49.382;11.358;2023-10-09T03:06:41;97075.13;;;13.16;100.00
68197;BME280;55019;49.382;11.358;2023-10-09T03:09:20;97069.94;;;13.16;100.00
68197;BME280;55019;49.382;11.358;2023-10-09T03:11:58;97073.97;;;13.18;100.00
68197;BME280;55019;49.382;11.358;2023-10-09T03:14:33;97067.34;;;13.16;100.00
68197;BME280;55019;49.382;11.358;2023-10-09T03:17:01;97066.72;;;13.14;100.00
68197;BME280;55019;49.382;11.358;2023-10-09T03:19:33;97069.13;;;13.15;100.00
68197;BME280;55019;49.382;11.358;2023-10-09T03:22:06;97078.53;;;13.16;100.00
68197;BME280;55019;49.382;11.358;2023-10-09T03:24:37;97072.53;;;13.16;100.00
68197;BME280;55019;49.382;11.358;2023-10-09T03:27:03;97071.91;;;13.14;100.00
68197;BME280;55019;49.382;11.358;2023-10-09T03:29:29;97065.56;;;13.16;100.00
68197;BME280;55019;49.382;11.358;2023-10-09T03:31:55;97065.41;;;13.18;100.00
68197;BME280;55019;49.382;11.358;2023-10-09T03:34:25;97058.59;;;13.17;100.00
68197;BME280;55019;49.382;11.358;2023-10-09T03:36:51;97056.47;;;13.12;100.00
68197;BME280;55019;49.382;11.358;2023-10-09T03:39:32;97046.59;;;13.16;100.00
68197;BME280;55019;49.382;11.358;2023-10-09T03:42:07;97053.56;;;13.15;100.00
68197;BME280;55019;49.382;11.358;2023-10-09T03:44:38;97054.22;;;13.09;100.00
68197;BME280;55019;49.382;11.358;2023-10-09T03:47:10;97053.59;;;13.07;100.00
68197;BME280;55019;49.382;11.358;2023-10-09T03:49:36;97047.41;;;13.08;100.00
68197;BME280;55019;49.382;11.358;2023-10-09T03:52:05;97042.41;;;12.99;100.00
68197;BME280;55019;49.382;11.358;2023-10-09T03:54:34;97044.69;;;13.02;100.00
68197;BME280;55019;49.382;11.358;2023-10-09T03:57:01;97041.13;;;13.03;100.00
68197;BME280;55019;49.382;11.358;2023-10-09T03:59:27;97039.50;;;13.02;100.00
68197;BME280;55019;49.382;11.358;2023-10-09T04:01:57;97025.41;;;12.97;100.00
68197;BME280;55019;49.382;11.358;2023-10-09T04:04:25;97029.13;;;12.86;100.00
68197;BME280;55019;49.382;11.358;2023-10-09T04:06:53;97031.38;;;12.89;100.00
68197;BME280;55019;49.382;11.358;2023-10-09T04:09:19;97030.78;;;12.79;100.00
68197;BME280;55019;49.382;11.358;2023-10-09T04:14:15;97026.56;;;12.78;100.00
68197;BME280;55019;49.382;11.358;2023-10-09T04:16:59;97030.78;;;12.71;100.00
68197;BME280;55019;49.382;11.358;2023-10-09T04:19:34;97018.81;;;12.62;100.00
68197;BME280;55019;49.382;11.358;2023-10-09T04:22:16;97025.94;;;12.68;100.00
68197;BME280;55019;49.382;11.358;2023-10-09T04:24:52;97023.69;;;12.65;100.00
68197;BME280;55019;49.382;11.358;2023-10-09T04:27:18;97024.50;;;12.42;100.00
68197;BME280;55019;49.382;11.358;2023-10-09T04:29:52;97031.94;;;12.53;100.00
68197;BME280;55019;49.382;11.358;2023-10-09T04:32:20;97033.09;;;12.50;100.00
68197;BME280;55019;49.382;11.358;2023-10-09T04:34:51;97024.50;;;12.42;100.00
68197;BME280;55019;49.382;11.358;2023-10-09T04:37:37;97034.38;;;12.38;100.00
68197;BME280;55019;49.382;11.358;2023-10-09T04:40:08;97028.09;;;12.41;100.00
68197;BME280;55019;49.382;11.358;2023-10-09T04:43:00;97032.63;;;12.39;100.00
68197;BME280;55019;49.382;11.358;2023-10-09T04:45:35;97022.75;;;12.26;100.00
68197;BME280;55019;49.382;11.358;2023-10-09T04:48:13;97021.75;;;12.27;100.00
68197;BME280;55019;49.382;11.358;2023-10-09T04:50:59;97019.50;;;12.24;100.00
68197;BME280;55019;49.382;11.358;2023-10-09T04:53:43;97021.59;;;12.21;100.00
68197;BME280;55019;49.382;11.358;2023-10-09T04:56:41;97008.81;;;12.11;100.00
68197;BME280;55019;49.382;11.358;2023-10-09T04:59:19;97018.69;;;12.08;100.00
68197;BME280;55019;49.382;11.358;2023-10-09T05:01:51;97005.88;;;11.98;100.00
68197;BME280;55019;49.382;11.358;2023-10-09T05:04:29;97005.25;;;12.04;100.00
68197;BME280;55019;49.382;11.358;2023-10-09T05:07:15;97000.41;;;12.01;100.00
68197;BME280;55019;49.382;11.358;2023-10-09T05:10:00;97001.53;;;11.99;100.00
68197;BME280;55019;49.382;11.358;2023-10-09T05:12:57;97006.38;;;11.86;100.00
68197;BME280;55019;49.382;11.358;2023-10-09T05:15:23;97010.09;;;11.91;100.00
68197;BME280;55019;49.382;11.358;2023-10-09T05:17:56;97005.22;;;11.88;100.00
68197;BME280;55019;49.382;11.358;2023-10-09T05:20:23;97007.66;;;11.82;100.00
68197;BME280;55019;49.382;11.358;2023-10-09T05:22:51;97016.09;;;11.84;100.00
68197;BME280;55019;49.382;11.358;2023-10-09T05:25:27;97014.16;;;11.78;100.00
68197;BME280;55019;49.382;11.358;2023-10-09T05:28:19;97011.06;;;11.82;100.00
68197;BME280;55019;49.382;11.358;2023-10-09T05:30:59;96997.28;;;11.66;100.00
68197;BME280;55019;49.382;11.358;2023-10-09T05:33:36;97008.44;;;11.66;100.00
68197;BME280;55019;49.382;11.358;2023-10-09T05:36:04;97021.09;;;11.77;100.00
68197;BME280;55019;49.382;11.358;2023-10-09T05:38:40;97009.25;;;11.67;100.00
68197;BME280;55019;49.382;11.358;2023-10-09T05:41:12;97026.44;;;11.84;100.00
68197;BME280;55019;49.382;11.358;2023-10-09T05:44:11;97025.78;;;11.74;100.00
68197;BME280;55019;49.382;11.358;2023-10-09T05:46:55;97032.41;;;11.68;100.00
68197;BME280;55019;49.382;11.358;2023-10-09T05:49:40;97028.97;;;11.68;100.00
68197;BME280;55019;49.382;11.358;2023-10-09T05:52:12;97026.59;;;11.74;100.00
68197;BME280;55019;49.382;11.358;2023-10-09T05:54:57;97031.78;;;11.82;100.00
68197;BME280;55019;49.382;11.358;2023-10-09T05:57:41;97017.59;;;11.53;100.00
68197;BME280;55019;49.382;11.358;2023-10-09T06:00:29;97010.06;;;11.59;100.00
68197;BME280;55019;49.382;11.358;2023-10-09T06:03:14;97014.59;;;11.65;100.00
68197;BME280;55019;49.382;11.358;2023-10-09T06:05:53;97005.56;;;11.77;100.00
68197;BME280;55019;49.382;11.358;2023-10-09T06:08:23;97009.44;;;11.81;100.00
68197;BME280;55019;49.382;11.358;2023-10-09T06:11:11;97024.50;;;11.94;100.00
68197;BME280;55019;49.382;11.358;2023-10-09T06:13:56;97037.00;;;12.06;100.00
68197;BME280;55019;49.382;11.358;2023-10-09T06:16:33;97014.97;;;12.10;100.00
68197;BME280;55019;49.382;11.358;2023-10-09T06:18:59;97025.00;;;12.21;100.00
68197;BME280;55019;49.382;11.358;2023-10-09T06:21:34;97023.88;;;12.32;100.00
68197;BME280;55019;49.382;11.358;2023-10-09T06:26:46;97019.31;;;12.50;100.00
68197;BME280;55019;49.382;11.358;2023-10-09T06:29:26;97019.47;;;12.56;100.00
68197;BME280;55019;49.382;11.358;2023-10-09T06:32:11;97029.16;;;12.70;100.00
68197;BME280;55019;49.382;11.358;2023-10-09T06:34:56;97024.94;;;12.77;100.00
68197;BME280;55019;49.382;11.358;2023-10-09T06:37:41;97020.72;;;12.84;100.00
68197;BME280;55019;49.382;11.358;2023-10-09T06:43:11;97023.94;;;13.02;100.00
68197;BME280;55019;49.382;11.358;2023-10-09T06:45:58;97009.31;;;13.09;100.00
68197;BME280;55019;49.382;11.358;2023-10-09T06:48:43;97022.13;;;13.10;100.00
68197;BME280;55019;49.382;11.358;2023-10-09T06:51:12;97029.72;;;13.20;100.00
68197;BME280;55019;49.382;11.358;2023-10-09T06:53:55;97036.78;;;13.34;100.00
68197;BME280;55019;49.382;11.358;2023-10-09T06:56:28;97024.19;;;13.23;100.00
68197;BME280;55019;49.382;11.358;2023-10-09T06:58:59;97044.19;;;13.45;100.00
68197;BME280;55019;49.382;11.358;2023-10-09T07:01:41;97024.75;;;13.41;100.00
68197;BME280;55019;49.382;11.358;2023-10-09T07:04:16;97021.34;;;13.40;100.00
68197;BME280;55019;49.382;11.358;2023-10-09T07:06:51;97029.75;;;13.50;100.00
68197;BME280;55019;49.382;11.358;2023-10-09T07:10:40;97055.06;;;13.79;100.00
68197;BME280;55019;49.382;11.358;2023-10-09T07:13:19;97042.56;;;13.74;100.00
68197;BME280;55019;49.382;11.358;2023-10-09T07:16:39;97073.56;;;14.06;100.00
68197;BME280;55019;49.382;11.358;2023-10-09T07:20:03;97075.09;;;14.23;100.00
68197;BME280;55019;49.382;11.358;2023-10-09T09:17:22;97121.78;;;20.50;87.22
68197;BME280;55019;49.382;11.358;2023-10-09T09:19:56;97108.06;;;20.79;75.93
68197;BME280;55019;49.382;11.358;2023-10-09T09:22:23;97110.34;;;21.25;77.67
68197;BME280;55019;49.382;11.358;2023-10-09T09:24:58;97117.75;;;20.79;75.86
68197;BME280;55019;49.382;11.358;2023-10-09T09:27:47;97114.00;;;21.84;73.00
68197;BME280;55019;49.382;11.358;2023-10-09T09:30:27;97103.94;;;22.58;63.71
68197;BME280;55019;49.382;11.358;2023-10-09T09:33:22;97120.66;;;23.04;63.97
68197;BME280;55019;49.382;11.358;2023-10-09T09:50:56;97125.31;;;19.88;94.45
68197;BME280;55019;49.382;11.358;2023-10-09T09:53:34;97133.81;;;19.77;100.00
68197;BME280;55019;49.382;11.358;2023-10-09T10:08:24;97151.78;;;18.57;100.00
68197;BME280;55019;49.382;11.358;2023-10-09T10:10:58;97123.56;;;17.86;100.00
68197;BME280;55019;49.382;11.358;2023-10-09T10:23:16;97138.31;;;18.06;100.00
68197;BME280;55019;49.382;11.358;2023-10-09T10:25:43;97125.44;;;18.05;100.00
68197;BME280;55019;49.382;11.358;2023-10-09T10:28:18;97133.06;;;18.00;100.00
68197;BME280;55019;49.382;11.358;2023-10-09T10:31:03;97131.53;;;18.25;100.00
68197;BME280;55019;49.382;11.358;2023-10-09T10:34:09;97136.44;;;18.34;100.00
68197;BME280;55019;49.382;11.358;2023-10-09T10:36:36;97120.41;;;18.03;100.00
68197;BME280;55019;49.382;11.358;2023-10-09T10:39:06;97139.78;;;18.15;100.00
68197;BME280;55019;49.382;11.358;2023-10-09T10:41:56;97141.44;;;18.29;100.00
68197;BME280;55019;49.382;11.358;2023-10-09T10:44:27;97124.69;;;18.17;100.00
68197;BME280;55019;49.382;11.358;2023-10-09T10:46:59;97137.16;;;18.15;100.00
68197;BME280;55019;49.382;11.358;2023-10-09T10:49:25;97140.47;;;17.96;100.00
68197;BME280;55019;49.382;11.358;2023-10-09T10:52:02;97134.97;;;17.78;100.00
68197;BME280;55019;49.382;11.358;2023-10-09T10:54:41;97119.38;;;17.57;100.00
68197;BME280;55019;49.382;11.358;2023-10-09T10:57:17;97123.78;;;17.97;100.00
68197;BME280;55019;49.382;11.358;2023-10-09T10:59:45;97115.03;;;18.24;100.00
68197;BME280;55019;49.382;11.358;2023-10-09T11:02:12;97115.53;;;18.60;100.00
68197;BME280;55019;49.382;11.358;2023-10-09T11:04:38;97111.28;;;18.33;100.00
68197;BME280;55019;49.382;11.358;2023-10-09T11:07:06;97109.84;;;18.31;100.00
68197;BME280;55019;49.382;11.358;2023-10-09T11:15:39;97070.94;;;17.55;100.00
68197;BME280;55019;49.382;11.358;2023-10-09T11:18:12;97068.38;;;17.61;100.00
68197;BME280;55019;49.382;11.358;2023-10-09T11:20:55;97062.00;;;17.37;100.00
68197;BME280;55019;49.382;11.358;2023-10-09T11:23:31;97058.06;;;17.47;100.00
68197;BME280;55019;49.382;11.358;2023-10-09T11:26:00;97057.16;;;17.34;100.00
68197;BME280;55019;49.382;11.358;2023-10-09T11:28:44;97062.00;;;17.37;100.00
68197;BME280;55019;49.382;11.358;2023-10-09T11:31:30;97061.06;;;17.50;100.00
68197;BME280;55019;49.382;11.358;2023-10-09T11:33:59;97057.78;;;17.82;100.00
68197;BME280;55019;49.382;11.358;2023-10-09T11:36:26;97068.47;;;17.87;100.00
68197;BME280;55019;49.382;11.358;2023-10-09T11:39:00;97063.56;;;18.31;100.00
68197;BME280;55019;49.382;11.358;2023-10-09T11:41:40;97086.16;;;19.03;100.00
68197;BME280;55019;49.382;11.358;2023-10-09T11:44:10;97086.75;;;18.86;100.00
68197;BME280;55019;49.382;11.358;2023-10-09T11:46:57;97090.59;;;18.64;100.00
68197;BME280;55019;49.382;11.358;2023-10-09T11:49:24;97094.97;;;18.31;100.00
68197;BME280;55019;49.382;11.358;2023-10-09T11:52:06;97138.59;;;18.24;100.00
68197;BME280;55019;49.382;11.358;2023-10-09T11:54:35;97127.09;;;18.12;100.00
68197;BME280;55019;49.382;11.358;2023-10-09T11:57:02;97104.16;;;18.14;100.00
68197;BME280;55019;49.382;11.358;2023-10-09T11:59:32;97073.09;;;17.85;100.00
68197;BME280;55019;49.382;11.358;2023-10-09T12:02:05;97057.44;;;17.98;100.00
68197;BME280;55019;49.382;11.358;2023-10-09T12:04:31;97062.66;;;17.98;100.00
68197;BME280;55019;49.382;11.358;2023-10-09T12:06:57;97080.16;;;17.98;100.00
68197;BME280;55019;49.382;11.358;2023-10-09T12:09:38;97087.66;;;18.14;100.00
68197;BME280;55019;49.382;11.358;2023-10-09T12:12:05;97115.41;;;18.15;100.00
68197;BME280;55019;49.382;11.358;2023-10-09T12:14:31;97135.16;;;18.17;100.00
68197;BME280;55019;49.382;11.358;2023-10-09T12:17:00;97149.56;;;18.00;100.00
68197;BME280;55019;49.382;11.358;2023-10-09T12:19:36;97147.22;;;18.18;100.00
68197;BME280;55019;49.382;11.358;2023-10-09T12:22:03;97193.22;;;18.00;100.00
68197;BME280;55019;49.382;11.358;2023-10-09T12:24:33;97179.41;;;17.78;100.00
68197;BME280;55019;49.382;11.358;2023-10-09T12:27:00;97194.66;;;17.68;100.00
68197;BME280;55019;49.382;11.358;2023-10-09T12:29:26;97208.56;;;17.48;100.00
68197;BME280;55019;49.382;11.358;2023-10-09T12:31:56;97190.00;;;17.37;100.00
68197;BME280;55019;49.382;11.358;2023-10-09T12:34:28;97172.97;;;17.20;100.00
68197;BME280;55019;49.382;11.358;2023-10-09T12:36:54;97141.41;;;17.15;100.00
68197;BME280;55019;49.382;11.358;2023-10-09T12:39:21;97089.91;;;17.09;100.00
68197;BME280;55019;49.382;11.358;2023-10-09T12:41:48;97088.03;;;16.96;100.00
68197;BME280;55019;49.382;11.358;2023-10-09T12:44:14;97058.97;;;17.06;100.00
68197;BME280;55019;49.382;11.358;2023-10-09T12:46:43;97032.84;;;16.99;100.00
68197;BME280;55019;49.382;11.358;2023-10-09T12:49:21;96998.31;;;17.04;100.00
68197;BME280;55019;49.382;11.358;2023-10-09T12:51:51;96992.34;;;17.10;100.00
68197;BME280;55019;49.382;11.358;2023-10-09T12:54:17;96987.09;;;17.37;100.00
68197;BME280;55019;49.382;11.358;2023-10-09T12:56:45;96985.19;;;17.31;100.00
68197;BME280;55019;49.382;11.358;2023-10-09T12:59:16;96989.69;;;17.37;100.00
68197;BME280;55019;49.382;11.358;2023-10-09T13:01:45;96983.28;;;17.52;100.00
68197;BME280;55019;49.382;11.358;2023-10-09T13:04:15;96982.16;;;17.61;100.00
68197;BME280;55019;49.382;11.358;2023-10-09T13:06:42;96996.47;;;17.91;100.00
68197;BME280;55019;49.382;11.358;2023-10-09T13:09:16;96986.41;;;17.82;100.00
68197;BME280;55019;49.382;11.358;2023-10-09T13:11:50;96980.75;;;17.65;100.00
68197;BME280;55019;49.382;11.358;2023-10-09T13:14:16;96971.47;;;17.63;100.00
68197;BME280;55019;49.382;11.358;2023-10-09T13:16:49;96980.06;;;17.50;100.00
68197;BME280;55019;49.382;11.358;2023-10-09T13:19:20;96966.41;;;17.48;100.00
68197;BME280;55019;49.382;11.358;2023-10-09T13:21:50;96959.38;;;17.49;100.00
68197;BME280;55019;49.382;11.358;2023-10-09T13:24:16;96972.28;;;17.57;100.00
68197;BME280;55019;49.382;11.358;2023-10-09T13:26:43;96964.84;;;17.67;100.00
68197;BME280;55019;49.382;11.358;2023-10-09T13:29:13;96958.44;;;17.76;100.00
68197;BME280;55019;49.382;11.358;2023-10-09T13:31:39;96955.44;;;17.72;100.00
68197;BME280;55019;49.382;11.358;2023-10-09T13:34:12;96945.97;;;17.78;100.00
68197;BME280;55019;49.382;11.358;2023-10-09T13:36:41;96937.13;;;17.72;100.00
68197;BME280;55019;49.382;11.358;2023-10-09T13:39:15;96942.78;;;17.82;100.00
68197;BME280;55019;49.382;11.358;2023-10-09T13:41:52;96936.72;;;17.82;100.00
68197;BME280;55019;49.382;11.358;2023-10-09T13:44:31;96948.41;;;17.92;100.00
68197;BME280;55019;49.382;11.358;2023-10-09T13:47:02;96962.47;;;17.85;100.00
68197;BME280;55019;49.382;11.358;2023-10-09T13:49:31;96958.31;;;18.16;100.00
68197;BME280;55019;49.382;11.358;2023-10-09T13:52:00;96951.25;;;18.10;100.00
68197;BME280;55019;49.382;11.358;2023-10-09T13:54:27;96964.19;;;18.31;100.00
68197;BME280;55019;49.382;11.358;2023-10-09T13:57:02;96963.34;;;18.24;99.04
68197;BME280;55019;49.382;11.358;2023-10-09T13:59:35;96956.50;;;18.30;96.29
68197;BME280;55019;49.382;11.358;2023-10-09T14:02:01;96963.34;;;18.24;97.23
68197;BME280;55019;49.382;11.358;2023-10-09T14:04:34;96965.75;;;18.19;100.00
68197;BME280;55019;49.382;11.358;2023-10-09T14:07:02;96955.66;;;18.03;97.56
68197;BME280;55019;49.382;11.358;2023-10-09T14:09:31;96951.44;;;18.02;99.70
68197;BME280;55019;49.382;11.358;2023-10-09T14:12:00;96960.50;;;18.00;97.91
68197;BME280;55019;49.382;11.358;2023-10-09T14:14:37;96946.00;;;17.84;100.00
68197;BME280;55019;49.382;11.358;2023-10-09T14:17:16;96948.81;;;17.76;100.00
68197;BME280;55019;49.382;11.358;2023-10-09T14:19:54;96954.84;;;17.83;99.05
68197;BME280;55019;49.382;11.358;2023-10-09T14:22:24;96931.50;;;17.82;100.00
68197;BME280;55019;49.382;11.358;2023-10-09T14:24:57;96915.00;;;17.62;98.46
68197;BME280;55019;49.382;11.358;2023-10-09T14:27:31;96932.72;;;17.79;99.90
68197;BME280;55019;49.382;11.358;2023-10-09T14:30:00;96946.00;;;17.84;100.00
68197;BME280;55019;49.382;11.358;2023-10-09T14:32:27;96948.44;;;17.86;98.70
68197;BME280;55019;49.382;11.358;2023-10-09T14:35:03;96946.00;;;17.84;100.00
68197;BME280;55019;49.382;11.358;2023-10-09T14:37:39;96943.59;;;17.89;100.00
68197;BME280;55019;49.382;11.358;2023-10-09T14:40:06;96952.25;;;17.96;100.00
68197;BME280;55019;49.382;11.358;2023-10-09T14:42:41;96968.16;;;17.95;99.11
68197;BME280;55019;49.382;11.358;2023-10-09T14:45:14;96983.03;;;18.01;100.00
68197;BME280;55019;49.382;11.358;2023-10-09T14:47:46;97002.56;;;18.24;99.97
68197;BME280;55019;49.382;11.358;2023-10-09T14:50:15;96998.38;;;18.36;100.00
68197;BME280;55019;49.382;11.358;2023-10-09T14:52:41;97000.38;;;18.60;100.00
68197;BME280;55019;49.382;11.358;2023-10-09T14:55:07;96996.75;;;18.68;96.70
68197;BME280;55019;49.382;11.358;2023-10-09T14:57:33;97005.00;;;18.78;92.58
68197;BME280;55019;49.382;11.358;2023-10-09T15:00:03;97003.59;;;18.88;96.78
68197;BME280;55019;49.382;11.358;2023-10-09T15:02:44;96994.91;;;18.94;97.16
68197;BME280;55019;49.382;11.358;2023-10-09T15:05:10;96998.13;;;18.96;97.90
68197;BME280;55019;49.382;11.358;2023-10-09T15:08:17;97001.53;;;19.09;97.94
68197;BME280;55019;49.382;11.358;2023-10-09T15:10:55;96983.41;;;19.01;95.64
68197;BME280;55019;49.382;11.358;2023-10-09T15:13:43;96974.19;;;18.86;89.86
68197;BME280;55019;49.382;11.358;2023-10-09T15:16:11;96982.41;;;18.96;94.63
68197;BME280;55019;49.382;11.358;2023-10-09T15:19:04;96993.47;;;19.04;93.16
68197;BME280;55019;49.382;11.358;2023-10-09T15:21:37;96978.59;;;18.92;93.41
68197;BME280;55019;49.382;11.358;2023-10-09T15:24:13;97016.00;;;19.12;98.39
68197;BME280;55019;49.382;11.358;2023-10-09T15:26:48;97014.22;;;19.06;100.00
68197;BME280;55019;49.382;11.358;2023-10-09T15:29:23;97016.03;;;18.99;100.00
68197;BME280;55019;49.382;11.358;2023-10-09T15:31:57;97006.59;;;18.98;98.39
68197;BME280;55019;49.382;11.358;2023-10-09T15:34:33;96990.69;;;18.93;97.47
68197;BME280;55019;49.382;11.358;2023-10-09T15:37:03;96998.53;;;18.99;99.42
68197;BME280;55019;49.382;11.358;2023-10-09T15:39:36;96990.69;;;18.93;97.94
68197;BME280;55019;49.382;11.358;2023-10-09T15:42:02;97000.78;;;18.83;94.99
68197;BME280;55019;49.382;11.358;2023-10-09T15:44:32;97013.88;;;18.77;98.86
68197;BME280;55019;49.382;11.358;2023-10-09T15:47:05;97012.66;;;18.79;100.00
68197;BME280;55019;49.382;11.358;2023-10-09T15:49:34;97019.72;;;18.72;100.00
68197;BME280;55019;49.382;11.358;2023-10-09T15:52:03;97011.69;;;18.67;100.00
68197;BME280;55019;49.382;11.358;2023-10-09T15:54:28;97019.31;;;18.62;100.00
68197;BME280;55019;49.382;11.358;2023-10-09T15:56:58;97007.44;;;18.53;100.00
68197;BME280;55019;49.382;11.358;2023-10-09T15:59:25;97015.69;;;18.50;100.00
68197;BME280;55019;49.382;11.358;2023-10-09T16:01:50;97012.44;;;18.29;100.00
68197;BME280;55019;49.382;11.358;2023-10-09T16:04:17;97017.91;;;18.27;100.00
68197;BME280;55019;49.382;11.358;2023-10-09T16:06:43;97004.81;;;18.27;100.00
68197;BME280;55019;49.382;11.358;2023-10-09T16:09:09;97016.06;;;18.21;100.00
68197;BME280;55019;49.382;11.358;2023-10-09T16:11:41;97026.31;;;18.23;100.00
68197;BME280;55019;49.382;11.358;2023-10-09T16:14:07;97029.53;;;18.18;100.00
68197;BME280;55019;49.382;11.358;2023-10-09T16:16:35;97029.69;;;18.10;100.00
68197;BME280;55019;49.382;11.358;2023-10-09T16:19:11;97047.41;;;18.02;100.00
68197;BME280;55019;49.382;11.358;2023-10-09T16:21:37;97050.97;;;17.94;100.00
68197;BME280;55019;49.382;11.358;2023-10-09T16:24:04;97044.09;;;17.80;100.00
68197;BME280;55019;49.382;11.358;2023-10-09T16:26:35;97019.25;;;17.44;100.00
68197;BME280;55019;49.382;11.358;2023-10-09T16:29:16;97015.88;;;17.56;100.00
68197;BME280;55019;49.382;11.358;2023-10-09T16:31:42;97009.00;;;17.42;100.00
68197;BME280;55019;49.382;11.358;2023-10-09T16:34:08;97005.97;;;17.45;100.00
68197;BME280;55019;49.382;11.358;2023-10-09T16:36:34;97004.59;;;17.49;100.00
68197;BME280;55019;49.382;11.358;2023-10-09T16:39:01;97009.41;;;17.52;100.00
68197;BME280;55019;49.382;11.358;2023-10-09T16:41:27;96998.56;;;17.49;100.00
68197;BME280;55019;49.382;11.358;2023-10-09T16:43:53;97007.59;;;17.46;100.00
68197;BME280;55019;49.382;11.358;2023-10-09T16:46:19;97003.38;;;17.45;100.00
68197;BME280;55019;49.382;11.358;2023-10-09T16:48:51;97008.53;;;17.33;100.00
68197;BME280;55019;49.382;11.358;2023-10-09T16:51:18;96998.25;;;16.91;100.00
68197;BME280;55019;49.382;11.358;2023-10-09T16:53:49;96996.25;;;16.93;100.00
68197;BME280;55019;49.382;11.358;2023-10-09T16:56:21;97014.84;;;17.11;100.00
68197;BME280;55019;49.382;11.358;2023-10-09T16:58:47;97013.22;;;17.10;100.00
68197;BME280;55019;49.382;11.358;2023-10-09T17:01:19;97033.34;;;17.16;100.00
68197;BME280;55019;49.382;11.358;2023-10-09T17:03:48;97015.19;;;17.01;100.00
68197;BME280;55019;49.382;11.358;2023-10-09T17:06:23;97003.97;;;17.07;100.00
68197;BME280;55019;49.382;11.358;2023-10-09T17:08:49;96989.69;;;17.03;100.00
68197;BME280;55019;49.382;11.358;2023-10-09T17:11:17;97001.13;;;17.02;100.00
68197;BME280;55019;49.382;11.358;2023-10-09T17:13:47;96998.84;;;16.93;100.00
68197;BME280;55019;49.382;11.358;2023-10-09T17:16:19;97011.28;;;16.91;100.00